Time;durP1;ratioP1;P1;durP2;ratioP2;P2;SDS_P1;SDS_P2;PMS_P1;PMS_P2;Temp;Humidity;BMP_temperature;BMP_pressure;BME280_temperature;BME280_humidity;BME280_pressure;Samples;Min_cycle;Max_cycle;Signal;HPM_P1;HPM_P2
2023/07/14 00:00:42;;;;;;;;;10.25;8.75;;;;;-146.67;36.02;74551.81;5094453;27;61685;-78
2023/07/14 00:03:09;;;;;;;;;17.75;10.75;;;;;-146.67;36.00;74547.81;5090091;27;63641;-78
2023/07/14 00:05:39;;;;;;;;;10.00;10.00;;;;;-146.67;36.03;74543.84;5089687;27;61830;-78
2023/07/14 00:08:14;;;;;;;;;14.50;10.75;;;;;-146.67;36.12;74545.81;5093443;27;61781;-78
2023/07/14 00:10:39;;;;;;;;;10.75;10.75;;;;;-146.67;35.87;74543.84;5091774;27;61871;-78
2023/07/14 00:13:07;;;;;;;;;12.50;10.75;;;;;-146.67;36.00;74541.84;5094964;27;63154;-78
2023/07/14 00:15:36;;;;;;;;;9.50;9.50;;;;;-146.67;36.26;74541.84;5093622;27;62067;-78
2023/07/14 00:18:16;;;;;;;;;11.50;11.50;;;;;-146.67;36.02;74539.84;5095226;27;61825;-78
2023/07/14 00:20:41;;;;;;;;;2.00;2.00;;;;;-146.67;36.25;74541.84;5096436;27;61874;-78
2023/07/14 00:23:14;;;;;;;;;16.50;14.75;;;;;-146.67;36.29;74547.81;5092525;27;64013;-78
2023/07/14 00:25:41;;;;;;;;;17.25;14.75;;;;;-146.67;36.25;74555.81;5094026;27;61726;-78
2023/07/14 00:28:18;;;;;;;;;17.50;15.25;;;;;-146.67;36.09;74559.81;5095455;27;61899;-78
2023/07/14 00:30:45;;;;;;;;;15.00;13.50;;;;;-146.67;36.08;74563.78;5095368;27;62152;-78
2023/07/14 00:33:16;;;;;;;;;18.25;14.50;;;;;-146.67;36.30;74563.78;5100320;27;63904;-78
2023/07/14 00:35:43;;;;;;;;;22.25;15.75;;;;;-146.67;36.38;74565.78;5091764;27;61891;-78
2023/07/14 00:38:09;;;;;;;;;17.75;16.50;;;;;-146.67;36.51;74561.81;5075104;28;62048;-78
2023/07/14 00:40:39;;;;;;;;;18.50;15.00;;;;;-146.67;36.69;74563.78;5072197;28;62190;-78
2023/07/14 00:43:11;;;;;;;;;17.00;14.50;;;;;-146.67;36.86;74567.78;5055536;28;64071;-78
2023/07/14 00:45:38;;;;;;;;;17.00;14.75;;;;;-146.67;36.54;74563.78;5071902;28;62056;-78
2023/07/14 00:48:04;;;;;;;;;22.75;15.50;;;;;-146.67;36.77;74551.81;5074092;28;62166;-78
2023/07/14 00:50:37;;;;;;;;;12.25;11.50;;;;;-146.67;36.66;74555.81;5059904;28;62069;-78
2023/07/14 00:53:12;;;;;;;;;17.50;16.00;;;;;-146.67;36.75;74555.81;5073870;28;63043;-78
2023/07/14 00:55:48;;;;;;;;;18.00;12.00;;;;;-146.67;36.66;74551.81;5074739;28;62126;-78
2023/07/14 00:58:19;;;;;;;;;16.00;15.00;;;;;-146.67;36.77;74555.81;5075392;28;62029;-78
2023/07/14 01:01:01;;;;;;;;;15.50;14.75;;;;;-146.67;36.65;74549.81;5059245;28;62018;-78
2023/07/14 01:03:27;;;;;;;;;19.50;18.75;;;;;-146.67;36.82;74551.81;5071375;28;61838;-78
2023/07/14 01:05:53;;;;;;;;;23.25;17.00;;;;;-146.67;36.79;74555.81;5059366;28;61879;-78
2023/07/14 01:08:20;;;;;;;;;17.50;15.00;;;;;-146.67;36.74;74547.81;5058178;28;61986;-78
2023/07/14 01:10:46;;;;;;;;;21.00;16.75;;;;;-146.67;36.92;74561.81;5073398;28;61814;-78
2023/07/14 01:13:12;;;;;;;;;18.75;17.00;;;;;-146.67;36.86;74559.81;5056363;28;63485;-78
2023/07/14 01:15:40;;;;;;;;;15.50;14.25;;;;;-146.67;36.87;74551.81;5072887;28;61821;-78
2023/07/14 01:18:07;;;;;;;;;18.50;15.25;;;;;-146.67;36.88;74545.81;5057343;28;62831;-78
2023/07/14 01:20:35;;;;;;;;;9.00;8.00;;;;;-146.67;36.99;74569.78;5054565;28;61977;-78
2023/07/14 01:23:13;;;;;;;;;18.50;15.50;;;;;-146.67;36.88;74573.78;5054444;28;63625;-78
2023/07/14 01:25:53;;;;;;;;;17.00;16.50;;;;;-146.67;37.02;74573.78;5072613;28;61898;-78
2023/07/14 01:28:20;;;;;;;;;14.75;12.25;;;;;-146.67;36.99;74555.81;5053918;28;62005;-78
2023/07/14 01:30:45;;;;;;;;;21.00;15.75;;;;;-146.67;36.95;74545.81;5056296;28;61886;-78
2023/07/14 01:33:17;;;;;;;;;19.75;19.00;;;;;-146.67;37.22;74571.78;5053578;28;63624;-78
2023/07/14 01:35:48;;;;;;;;;23.00;17.00;;;;;-146.67;37.21;74571.78;5055069;27;62299;-78
2023/07/14 01:38:15;;;;;;;;;19.50;13.25;;;;;-146.67;37.41;74567.78;5074362;28;62127;-78
2023/07/14 01:40:40;;;;;;;;;18.50;15.25;;;;;-146.67;36.95;74555.81;5057872;28;62052;-78
2023/07/14 01:43:08;;;;;;;;;16.50;14.25;;;;;-146.67;37.21;74575.78;5054604;28;64662;-78
2023/07/14 01:45:52;;;;;;;;;19.75;16.50;;;;;-146.67;37.03;74579.78;5059042;28;61776;-78
2023/07/14 01:48:24;;;;;;;;;15.00;13.25;;;;;-146.67;37.23;74581.75;5072618;28;61974;-78
2023/07/14 01:50:54;;;;;;;;;16.50;14.50;;;;;-146.67;37.24;74583.75;5054014;28;61831;-78
2023/07/14 01:53:28;;;;;;;;;15.50;12.25;;;;;-146.67;37.30;74587.75;5052404;28;63859;-78
2023/07/14 01:55:58;;;;;;;;;14.00;10.75;;;;;-146.67;37.52;74591.75;5072280;28;62386;-78
2023/07/14 01:58:30;;;;;;;;;10.50;10.50;;;;;-146.67;37.43;74591.75;5055093;28;61949;-78
2023/07/14 02:00:56;;;;;;;;;12.75;9.75;;;;;-146.67;37.29;74589.75;5056906;28;62298;-78
2023/07/14 02:03:36;;;;;;;;;10.25;10.25;;;;;-146.67;37.24;74589.75;5072173;28;61896;-78
2023/07/14 02:06:02;;;;;;;;;11.75;8.50;;;;;-146.67;37.41;74573.78;5052760;28;62132;-78
2023/07/14 02:08:28;;;;;;;;;13.25;11.25;;;;;-146.67;37.38;74577.78;5073618;28;62059;-78
2023/07/14 02:10:53;;;;;;;;;11.75;9.25;;;;;-146.67;37.57;74587.75;5062162;28;62322;-78
2023/07/14 02:13:22;;;;;;;;;13.25;10.25;;;;;-146.67;37.33;74603.72;5073276;28;63283;-78
2023/07/14 02:15:48;;;;;;;;;10.25;9.00;;;;;-146.67;37.50;74589.75;5073701;28;61911;-78
2023/07/14 02:18:19;;;;;;;;;9.00;9.00;;;;;-146.67;37.50;74589.75;5052754;28;62030;-78
2023/07/14 02:20:47;;;;;;;;;9.75;8.75;;;;;-146.67;37.55;74609.72;5072086;28;61857;-78
2023/07/14 02:23:19;;;;;;;;;13.75;9.75;;;;;-146.67;37.76;74609.72;5052551;28;64098;-78
2023/07/14 02:25:47;;;;;;;;;12.00;9.00;;;;;-146.67;37.73;74603.72;5071009;28;62043;-78
2023/07/14 02:28:14;;;;;;;;;12.75;10.25;;;;;-146.67;37.75;74599.72;5073779;28;62076;-78
2023/07/14 02:30:45;;;;;;;;;14.75;13.25;;;;;-146.67;37.56;74619.69;5054008;28;61939;-78
2023/07/14 02:33:22;;;;;;;;;14.50;12.75;;;;;-146.67;37.55;74611.72;5052722;28;64043;-78
2023/07/14 02:35:58;;;;;;;;;18.75;14.75;;;;;-146.67;37.55;74607.72;5061128;27;61971;-78
2023/07/14 02:38:24;;;;;;;;;14.75;12.25;;;;;-146.67;37.82;74613.72;5093011;27;61718;-78
2023/07/14 02:40:54;;;;;;;;;16.00;13.50;;;;;-146.67;37.80;74635.66;5090925;27;61839;-78
2023/07/14 02:43:22;;;;;;;;;17.25;14.25;;;;;-146.67;38.08;74639.66;5090439;27;63643;-78
2023/07/14 02:45:56;;;;;;;;;15.50;13.75;;;;;-146.67;37.72;74625.69;5094513;27;61754;-78
2023/07/14 02:48:30;;;;;;;;;22.75;18.00;;;;;-146.67;37.86;74631.69;5092203;27;62030;-78
2023/07/14 02:50:56;;;;;;;;;23.75;14.00;;;;;-146.67;38.00;74625.69;5093344;27;62070;-78
2023/07/14 02:53:22;;;;;;;;;16.50;12.25;;;;;-146.67;37.92;74643.66;5090555;27;61814;-78
2023/07/14 02:55:47;;;;;;;;;13.00;11.75;;;;;-146.67;38.19;74645.66;5093089;27;61701;-78
2023/07/14 02:58:13;;;;;;;;;15.00;12.00;;;;;-146.67;38.15;74653.63;5091461;27;62293;-78
2023/07/14 03:00:38;;;;;;;;;13.75;13.00;;;;;-146.67;38.20;74647.66;5093371;27;62097;-78
2023/07/14 03:03:03;;;;;;;;;13.25;9.00;;;;;-146.67;38.18;74651.66;5090321;27;62153;-78
2023/07/14 03:05:29;;;;;;;;;11.00;9.00;;;;;-146.67;38.03;74641.66;5090225;27;61794;-78
2023/07/14 03:07:55;;;;;;;;;11.75;9.25;;;;;-146.67;37.93;74645.66;5092377;27;61974;-78
2023/07/14 03:10:20;;;;;;;;;19.50;13.50;;;;;-146.67;38.06;74633.69;5090528;27;61784;-78
2023/07/14 03:12:45;;;;;;;;;16.75;14.00;;;;;-146.67;38.28;74627.69;5098785;27;63652;-78
2023/07/14 03:15:11;;;;;;;;;17.25;12.00;;;;;-146.67;37.90;74625.69;5092274;27;61815;-78
2023/07/14 03:17:36;;;;;;;;;15.00;12.50;;;;;-146.67;38.16;74623.69;5092284;27;62599;-78
2023/07/14 03:20:02;;;;;;;;;14.25;12.50;;;;;-146.67;38.01;74625.69;5090739;27;62194;-78
2023/07/14 03:22:30;;;;;;;;;16.25;13.25;;;;;-146.67;38.15;74621.69;5090826;27;63490;-78
2023/07/14 03:25:00;;;;;;;;;16.75;12.75;;;;;-146.67;38.21;74619.69;5091317;27;61807;-78
2023/07/14 03:27:26;;;;;;;;;11.25;10.00;;;;;-146.67;38.05;74619.69;5091591;27;61802;-78
2023/07/14 03:29:51;;;;;;;;;12.00;10.25;;;;;-146.67;38.06;74621.69;5093906;27;63208;-78
2023/07/14 03:32:16;;;;;;;;;17.25;11.50;;;;;-146.67;38.25;74625.69;5090022;27;62751;-78
2023/07/14 03:34:42;;;;;;;;;11.75;11.75;;;;;-146.67;37.95;74623.69;5090714;27;63025;-78
2023/07/14 03:37:07;;;;;;;;;11.25;10.00;;;;;-146.67;38.31;74611.72;5077983;27;62045;-78
2023/07/14 03:39:33;;;;;;;;;17.00;11.00;;;;;-146.67;38.23;74611.72;5069169;28;61992;-78
2023/07/14 03:41:58;;;;;;;;;14.50;10.50;;;;;-146.67;38.08;74599.72;5071933;28;62026;-79
2023/07/14 03:44:24;;;;;;;;;11.75;9.25;;;;;-146.67;38.32;74597.75;5054926;28;61998;-79
2023/07/14 03:46:50;;;;;;;;;10.25;10.25;;;;;-146.67;38.27;74595.75;5054212;28;62268;-79
2023/07/14 03:49:16;;;;;;;;;13.75;10.75;;;;;-146.67;38.22;74587.75;5069732;28;61980;-79
2023/07/14 03:51:42;;;;;;;;;12.00;9.75;;;;;-146.67;38.31;74579.78;5070112;28;65079;-79
2023/07/14 03:54:09;;;;;;;;;8.75;8.00;;;;;-146.67;37.97;74575.78;5072072;28;61958;-79
2023/07/14 03:56:35;;;;;;;;;11.50;9.25;;;;;-146.67;38.02;74577.78;5070241;28;61759;-79
2023/07/14 03:59:00;;;;;;;;;11.75;10.25;;;;;-146.67;37.97;74571.78;5054003;28;61763;-79
2023/07/14 04:01:25;;;;;;;;;11.75;10.25;;;;;-146.67;38.04;74567.78;5055449;28;63625;-79
2023/07/14 04:03:51;;;;;;;;;17.00;11.00;;;;;-146.67;37.97;74561.81;5070011;28;61947;-79
2023/07/14 04:06:17;;;;;;;;;10.25;9.50;;;;;-146.67;37.95;74557.81;5051954;28;62053;-79
2023/07/14 04:08:44;;;;;;;;;13.75;10.00;;;;;-146.67;37.93;74555.81;5071589;28;62005;-79
2023/07/14 04:11:11;;;;;;;;;8.25;8.25;;;;;-146.67;37.89;74543.84;5070926;28;62674;-79
2023/07/14 04:13:36;;;;;;;;;10.00;9.25;;;;;-146.67;37.97;74545.81;5070662;28;61932;-79
2023/07/14 04:16:04;;;;;;;;;11.00;11.00;;;;;-146.67;37.91;74535.84;5071142;28;61776;-79
2023/07/14 04:18:30;;;;;;;;;10.50;9.25;;;;;-146.67;37.97;74533.84;5071861;28;62264;-79
2023/07/14 04:21:00;;;;;;;;;10.25;9.75;;;;;-146.67;37.77;74533.84;5054268;28;64982;-79
2023/07/14 04:23:25;;;;;;;;;18.50;10.25;;;;;-146.67;37.93;74527.84;5071852;28;61969;-79
2023/07/14 04:25:51;;;;;;;;;14.25;11.00;;;;;-146.67;37.80;74525.88;5052173;28;61929;-79
2023/07/14 04:28:16;;;;;;;;;11.25;10.25;;;;;-146.67;37.87;74527.84;5073256;28;61856;-79
2023/07/14 04:30:42;;;;;;;;;12.00;12.00;;;;;-146.67;37.67;74519.88;5070361;28;61968;-79
2023/07/14 04:33:07;;;;;;;;;13.00;9.00;;;;;-146.67;37.76;74515.88;5056022;28;62184;-79
2023/07/14 04:35:33;;;;;;;;;12.25;10.75;;;;;-146.67;37.66;74513.88;5051536;28;61868;-79
2023/07/14 04:37:58;;;;;;;;;11.00;11.00;;;;;-146.67;38.01;74507.91;5071770;28;61823;-79
2023/07/14 04:40:24;;;;;;;;;14.00;12.50;;;;;-146.67;38.07;74505.91;5055460;28;63992;-79
2023/07/14 04:42:49;;;;;;;;;9.00;9.00;;;;;-146.67;37.96;74495.91;5059935;28;61871;-79
2023/07/14 04:45:16;;;;;;;;;12.00;10.25;;;;;-146.67;37.98;74485.94;5053932;28;61874;-79
2023/07/14 04:47:43;;;;;;;;;13.50;10.00;;;;;-146.67;37.94;74485.94;5070547;28;62135;-79
2023/07/14 04:50:09;;;;;;;;;18.50;12.50;;;;;-146.67;37.86;74485.94;5068983;28;63006;-78
2023/07/14 04:52:34;;;;;;;;;12.50;11.00;;;;;-146.67;37.97;74491.94;5050705;28;62070;-78
2023/07/14 04:54:59;;;;;;;;;14.25;11.25;;;;;-146.67;37.91;74487.94;5052638;28;62330;-79
2023/07/14 04:57:25;;;;;;;;;10.75;6.25;;;;;-146.67;37.90;74471.97;5056285;28;62009;-79
2023/07/14 04:59:50;;;;;;;;;14.50;12.50;;;;;-146.67;38.08;74456.00;5054255;28;63803;-79
2023/07/14 05:02:15;;;;;;;;;15.75;11.00;;;;;-146.67;37.86;74440.00;5053979;28;61788;-79
2023/07/14 05:04:42;;;;;;;;;13.75;13.75;;;;;-146.67;37.81;74444.00;5074157;28;61778;-79
2023/07/14 05:07:07;;;;;;;;;13.00;10.75;;;;;-146.67;37.83;74448.00;5055292;28;61933;-79
2023/07/14 05:09:34;;;;;;;;;12.75;11.00;;;;;-146.67;37.86;74432.03;5074598;28;61875;-79
2023/07/14 05:12:00;;;;;;;;;10.50;7.25;;;;;-146.67;37.77;74426.03;5058216;28;62138;-79
2023/07/14 05:14:26;;;;;;;;;8.75;6.50;;;;;-146.67;37.48;74430.03;5073722;28;62188;-79
2023/07/14 05:16:52;;;;;;;;;8.00;7.00;;;;;-146.67;37.41;74420.06;5059165;28;61950;-79
2023/07/14 05:19:17;;;;;;;;;8.75;6.00;;;;;-146.67;37.27;74402.09;5054229;28;64684;-79
2023/07/14 05:21:42;;;;;;;;;5.50;5.00;;;;;-146.67;36.87;74394.09;5075209;28;62037;-79
2023/07/14 05:24:08;;;;;;;;;5.75;5.50;;;;;-146.67;36.72;74372.13;5059627;28;61905;-79
2023/07/14 05:26:33;;;;;;;;;6.75;3.75;;;;;-146.67;36.82;74366.16;5054931;28;61948;-79
2023/07/14 05:28:59;;;;;;;;;7.75;5.25;;;;;-146.67;36.68;74360.16;5055279;28;63986;-79
2023/07/14 05:31:24;;;;;;;;;7.25;5.25;;;;;-146.67;36.85;74356.16;5051738;28;61837;-79
2023/07/14 05:33:50;;;;;;;;;6.50;5.25;;;;;-146.67;36.50;74358.16;5074648;28;62235;-79
2023/07/14 05:36:15;;;;;;;;;6.25;3.25;;;;;-146.67;36.45;74340.19;5072497;27;61911;-79
2023/07/14 05:38:40;;;;;;;;;4.25;2.75;;;;;-146.67;36.17;74336.19;5054800;28;63819;-79
2023/07/14 05:41:08;;;;;;;;;5.00;5.00;;;;;-146.67;36.25;74328.22;5054876;28;61915;-79
2023/07/14 05:43:33;;;;;;;;;2.00;2.00;;;;;-146.67;36.17;74334.22;5057457;28;62106;-79
2023/07/14 05:45:59;;;;;;;;;4.75;2.00;;;;;-146.67;35.80;74328.22;5075236;28;62241;-79
2023/07/14 05:48:25;;;;;;;;;4.00;3.00;;;;;-146.67;35.61;74318.25;5072460;28;62075;-79
2023/07/14 05:50:51;;;;;;;;;2.75;2.75;;;;;-146.67;35.70;74314.25;5074108;28;61883;-79
2023/07/14 05:53:17;;;;;;;;;4.00;4.00;;;;;-146.67;35.80;74302.25;5056561;28;61835;-79
2023/07/14 05:55:43;;;;;;;;;7.00;2.00;;;;;-146.67;35.80;74288.28;5058801;28;62141;-79
2023/07/14 05:58:08;;;;;;;;;5.00;1.75;;;;;-146.67;35.72;74290.28;5071745;28;61993;-79
2023/07/14 06:00:38;;;;;;;;;6.50;2.25;;;;;-146.67;35.57;74306.25;5074223;28;61922;-79
2023/07/14 06:03:06;;;;;;;;;5.25;4.00;;;;;-146.67;35.71;74288.28;5071204;28;62049;-79
2023/07/14 06:05:31;;;;;;;;;2.25;2.25;;;;;-146.67;35.48;74278.31;5059273;28;61870;-79
2023/07/14 06:07:57;;;;;;;;;2.25;2.25;;;;;-146.67;35.66;74278.31;5071601;28;61964;-79
2023/07/14 06:10:22;;;;;;;;;2.25;2.25;;;;;-146.67;35.46;74268.31;5054709;28;62148;-79
2023/07/14 06:12:48;;;;;;;;;2.75;1.50;;;;;-146.67;35.36;74248.38;5074276;28;62076;-79
2023/07/14 06:15:13;;;;;;;;;3.00;3.00;;;;;-146.67;35.29;74238.38;5070453;28;61956;-79
2023/07/14 06:17:39;;;;;;;;;2.00;2.00;;;;;-146.67;34.90;74236.38;5073100;28;63017;-79
2023/07/14 06:20:05;;;;;;;;;2.25;2.25;;;;;-146.67;35.03;74224.41;5072019;28;62044;-79
2023/07/14 06:22:30;;;;;;;;;3.50;1.00;;;;;-146.67;34.83;74218.41;5074384;28;61908;-79
2023/07/14 06:24:56;;;;;;;;;3.00;3.00;;;;;-146.67;34.73;74208.44;5072425;28;62029;-79
2023/07/14 06:27:33;;;;;;;;;3.00;3.00;;;;;-146.67;34.56;74200.44;5072462;28;61896;-79
2023/07/14 06:30:03;;;;;;;;;3.25;2.00;;;;;-146.67;34.56;74182.50;5069847;28;61792;-79
2023/07/14 06:32:28;;;;;;;;;4.00;1.75;;;;;-146.67;34.32;74174.50;5053009;28;61947;-79
2023/07/14 06:34:56;;;;;;;;;1.50;1.50;;;;;-146.67;34.18;74158.53;5056674;28;62094;-79
2023/07/14 06:37:24;;;;;;;;;4.25;2.50;;;;;-146.67;34.22;74130.59;5083547;27;63677;-79
2023/07/14 06:39:50;;;;;;;;;5.00;3.00;;;;;-146.67;33.73;74112.63;5090150;27;61948;-79
2023/07/14 06:42:16;;;;;;;;;2.25;2.00;;;;;-146.67;33.69;74116.59;5092844;27;61776;-79
2023/07/14 06:44:42;;;;;;;;;2.00;2.00;;;;;-146.67;33.51;74100.63;5088986;27;61740;-80
2023/07/14 06:47:07;;;;;;;;;4.25;4.00;;;;;-146.67;33.32;74088.66;5097068;27;63262;-83
2023/07/14 06:49:33;;;;;;;;;3.00;3.00;;;;;-146.67;33.45;74072.69;5102098;27;61952;-83
2023/07/14 06:51:58;;;;;;;;;2.75;2.75;;;;;-146.67;33.63;74074.69;5102816;27;61935;-83
2023/07/14 06:54:24;;;;;;;;;3.00;3.00;;;;;-146.67;33.45;74060.72;5102842;27;61835;-84
2023/07/14 06:56:49;;;;;;;;;6.00;3.00;;;;;-146.67;33.29;74056.72;5102703;27;61905;-83
2023/07/14 06:59:15;;;;;;;;;6.00;3.00;;;;;-146.67;33.14;74052.72;5100083;27;61865;-83
2023/07/14 07:01:41;;;;;;;;;4.00;4.00;;;;;-146.67;33.07;74040.75;5082228;28;62075;-83
2023/07/14 07:04:06;;;;;;;;;3.50;3.00;;;;;-146.67;32.81;74030.78;5083418;27;61902;-80
2023/07/14 07:06:32;;;;;;;;;4.00;4.00;;;;;-146.67;32.42;74010.81;5092565;27;63622;-80
2023/07/14 07:08:57;;;;;;;;;3.00;3.00;;;;;-146.67;32.44;73998.84;5093788;27;61983;-82
2023/07/14 07:11:23;;;;;;;;;3.67;2.67;;;;;-146.67;32.77;74002.81;5093643;27;61829;-81
2023/07/14 07:13:48;;;;;;;;;5.50;3.00;;;;;-146.67;32.44;73982.88;5095332;27;61960;-82
2023/07/14 07:16:15;;;;;;;;;2.00;2.00;;;;;-146.67;32.35;73972.88;5102806;27;63143;-82
2023/07/14 07:18:40;;;;;;;;;3.25;2.25;;;;;-146.67;32.49;73964.91;5100875;27;62226;-82
2023/07/14 07:21:07;;;;;;;;;5.50;3.00;;;;;-146.67;32.00;73944.94;5097911;27;61944;-82
2023/07/14 07:23:33;;;;;;;;;3.00;3.00;;;;;-146.67;32.21;73940.94;5101833;27;62081;-83
2023/07/14 07:25:58;;;;;;;;;2.00;2.00;;;;;-146.67;32.25;73926.97;5101243;27;64827;-83
2023/07/14 07:28:24;;;;;;;;;4.50;4.00;;;;;-146.67;31.87;73907.00;5101288;27;62149;-83
2023/07/14 07:30:50;;;;;;;;;5.25;3.50;;;;;-146.67;31.91;73877.06;5087914;27;61767;-81
2023/07/14 07:33:16;;;;;;;;;4.25;1.50;;;;;-146.67;31.55;73879.06;5082682;28;61922;-81
2023/07/14 07:35:42;;;;;;;;;4.75;2.25;;;;;-146.67;31.48;73871.06;5079979;27;65385;-82
2023/07/14 07:38:12;;;;;;;;;3.25;3.25;;;;;-146.67;31.43;73869.09;5044041;28;61863;-78
2023/07/14 07:40:39;;;;;;;;;4.50;3.50;;;;;-146.67;31.40;73865.09;5061878;28;61972;-78
2023/07/14 07:43:05;;;;;;;;;4.33;3.67;;;;;-146.67;31.34;73851.13;5044289;28;61840;-78
2023/07/14 07:45:30;;;;;;;;;3.50;3.00;;;;;-146.67;31.17;73849.13;5043360;28;63817;-78
2023/07/14 07:47:57;;;;;;;;;3.25;3.00;;;;;-146.67;31.46;73837.16;5054912;28;61895;-79
2023/07/14 07:50:23;;;;;;;;;3.25;3.25;;;;;-146.67;31.07;73815.19;5063814;28;62084;-78
2023/07/14 07:52:48;;;;;;;;;3.33;3.33;;;;;-146.67;31.39;73797.22;5082311;28;62201;-80
2023/07/14 07:55:14;;;;;;;;;9.00;3.00;;;;;-146.67;31.22;73781.25;5081650;28;62983;-79
2023/07/14 07:57:40;;;;;;;;;5.75;4.00;;;;;-146.67;30.93;73763.28;5082145;28;61704;-79
2023/07/14 08:00:08;;;;;;;;;4.00;4.00;;;;;-146.67;30.76;73739.34;5064227;28;61712;-79
2023/07/14 08:02:35;;;;;;;;;5.75;3.75;;;;;-146.67;30.73;73731.34;5059335;28;62179;-79
2023/07/14 08:05:01;;;;;;;;;3.50;2.25;;;;;-146.67;30.55;73721.38;5061394;28;62493;-79
2023/07/14 08:07:27;;;;;;;;;4.00;4.00;;;;;-146.67;30.32;73713.38;5061428;28;62111;-79
2023/07/14 08:09:53;;;;;;;;;5.00;4.75;;;;;-146.67;30.60;73711.38;5043756;28;61786;-79
2023/07/14 08:12:18;;;;;;;;;3.00;2.67;;;;;-146.67;30.68;73699.41;5059953;28;61786;-79
2023/07/14 08:14:55;;;;;;;;;2.50;2.50;;;;;-146.67;30.47;73703.41;5061280;28;61847;-78
2023/07/14 08:17:27;;;;;;;;;3.00;2.50;;;;;-146.67;30.31;73701.41;5061572;28;61879;-80
2023/07/14 08:19:53;;;;;;;;;2.67;2.00;;;;;-146.67;30.39;73705.41;5043157;28;61779;-81
2023/07/14 08:22:20;;;;;;;;;4.75;4.00;;;;;-146.67;30.21;73697.41;5061758;28;62210;-79
2023/07/14 08:24:46;;;;;;;;;4.00;4.00;;;;;-146.67;30.26;73689.44;5075242;28;62008;-79
2023/07/14 08:27:11;;;;;;;;;3.00;2.33;;;;;-146.67;30.12;73679.44;5051130;28;62057;-79
2023/07/14 08:29:36;;;;;;;;;3.00;3.00;;;;;-146.67;30.00;73669.47;5043805;28;61914;-79
2023/07/14 08:32:02;;;;;;;;;6.00;3.00;;;;;-146.67;29.86;73659.50;5046206;28;61874;-79
2023/07/14 08:34:29;;;;;;;;;4.50;4.50;;;;;-146.67;29.69;73657.50;5046127;28;63684;-79
2023/07/14 08:36:55;;;;;;;;;3.33;2.67;;;;;-146.67;29.86;73653.50;5064721;27;61874;-78
2023/07/14 08:39:20;;;;;;;;;5.00;4.00;;;;;-146.67;29.61;73637.53;5085311;27;61893;-79
2023/07/14 08:41:58;;;;;;;;;3.00;2.00;;;;;-146.67;29.48;73623.56;5085606;27;61941;-81
2023/07/14 08:44:36;;;;;;;;;5.67;4.00;;;;;-146.67;29.21;73613.59;5083356;28;63254;-78
2023/07/14 08:47:12;;;;;;;;;4.67;3.33;;;;;-146.67;29.42;73617.56;5084719;28;61806;-78
2023/07/14 08:50:03;;;;;;;;;2.25;2.00;;;;;-146.67;29.61;73605.59;5097521;27;61996;-80
2023/07/14 08:52:33;;;;;;;;;3.67;3.67;;;;;-146.67;29.53;73587.63;5092560;27;62014;-78
2023/07/14 08:55:11;;;;;;;;;6.25;6.25;;;;;-146.67;29.48;73577.66;5091927;27;64186;-78
2023/07/14 08:57:45;;;;;;;;;7.00;7.00;;;;;-146.67;29.38;73573.66;5099115;27;62037;-80
2023/07/14 09:00:31;;;;;;;;;6.00;6.00;;;;;-146.67;29.94;73565.69;5094811;27;61888;-79
2023/07/14 09:03:05;;;;;;;;;5.00;4.67;;;;;-146.67;29.46;73555.69;5093194;27;61780;-80
2023/07/14 09:05:35;;;;;;;;;2.00;2.00;;;;;-146.67;29.41;73543.72;5084373;27;63305;-78
2023/07/14 09:08:00;;;;;;;;;2.67;2.00;;;;;-146.67;28.71;73543.72;5084255;27;62043;-79
2023/07/14 09:10:45;;;;;;;;;6.25;3.75;;;;;-146.67;29.04;73539.72;5083774;28;61973;-79
2023/07/14 09:13:19;;;;;;;;;4.00;3.25;;;;;-146.67;28.56;73535.75;5100147;27;61951;-79
2023/07/14 09:15:46;;;;;;;;;4.67;3.67;;;;;-146.67;29.10;73545.72;5104763;27;62120;-79
2023/07/14 09:18:28;;;;;;;;;2.25;2.25;;;;;-146.67;29.09;73565.69;5096804;27;61920;-80
2023/07/14 09:21:13;;;;;;;;;6.00;3.00;;;;;-146.67;29.16;73583.66;5093175;27;61880;-77
2023/07/14 09:23:56;;;;;;;;;2.67;2.00;;;;;-146.67;29.57;73603.59;5088495;27;62220;-78
2023/07/14 09:26:39;;;;;;;;;2.00;2.00;;;;;-146.67;29.35;73609.59;5083921;28;62144;-78
2023/07/14 09:29:30;;;;;;;;;4.50;2.00;;;;;-146.67;29.64;73611.59;5098747;27;62025;-78
2023/07/14 09:32:09;;;;;;;;;5.00;3.75;;;;;-146.67;29.58;73615.59;5104897;27;62109;-78
2023/07/14 09:34:42;;;;;;;;;6.50;3.75;;;;;-146.67;29.44;73617.56;5104903;27;62000;-78
2023/07/14 09:37:43;;;;;;;;;4.25;3.25;;;;;-146.67;29.40;73621.56;5082279;27;61819;-79
2023/07/14 09:40:21;;;;;;;;;1.67;1.67;;;;;-146.67;29.83;73611.59;5040637;28;61945;-78
2023/07/14 09:42:52;;;;;;;;;4.25;3.50;;;;;-146.67;28.96;73617.56;5063402;28;61817;-75
2023/07/14 09:45:27;;;;;;;;;2.67;2.67;;;;;-146.67;29.14;73623.56;5073090;28;61889;-78
2023/07/14 09:48:25;;;;;;;;;2.25;2.25;;;;;-146.67;29.20;73625.56;5064148;28;63983;-77
2023/07/14 09:51:05;;;;;;;;;1.67;1.67;;;;;-146.67;29.01;73609.59;5073495;28;61776;-77
2023/07/14 09:53:32;;;;;;;;;2.00;2.00;;;;;-146.67;29.07;73601.59;5051065;28;62013;-83
2023/07/14 09:56:10;;;;;;;;;7.25;3.00;;;;;-146.67;29.35;73581.66;5046356;28;63061;-84
2023/07/14 09:58:36;;;;;;;;;4.00;3.00;;;;;-146.67;29.11;73561.69;5043818;28;63300;-81
2023/07/14 10:01:06;;;;;;;;;3.00;2.00;;;;;-146.67;28.71;73549.72;5057818;28;61844;-82
2023/07/14 10:03:42;;;;;;;;;3.67;2.67;;;;;-146.67;28.69;73537.75;5070054;28;62369;-84
2023/07/14 10:06:24;;;;;;;;;3.33;2.33;;;;;-146.67;28.61;73517.78;5051596;28;62647;-83
2023/07/14 10:08:54;;;;;;;;;1.67;1.67;;;;;-146.67;28.61;73521.78;5055437;28;63179;-82
2023/07/14 10:11:23;;;;;;;;;3.33;3.00;;;;;-146.67;28.54;73523.75;5056739;28;61759;-79
2023/07/14 10:14:07;;;;;;;;;2.00;2.00;;;;;-146.67;28.25;73523.75;5071225;28;62049;-78
2023/07/14 10:16:41;;;;;;;;;4.33;1.67;;;;;-146.67;28.53;73511.78;5055844;28;61819;-77
2023/07/14 10:19:14;;;;;;;;;2.33;2.00;;;;;-146.67;28.27;73497.81;5071848;28;63173;-80
2023/07/14 10:21:54;;;;;;;;;2.33;2.33;;;;;-146.67;27.96;73483.84;5053870;28;61784;-76
2023/07/14 10:24:21;;;;;;;;;4.00;2.00;;;;;-146.67;27.70;73475.88;5071809;28;62109;-78
2023/07/14 10:26:51;;;;;;;;;2.67;2.67;;;;;-146.67;27.95;73463.88;5068321;28;61900;-75
2023/07/14 10:29:19;;;;;;;;;2.00;2.00;;;;;-146.67;27.64;73447.91;5073396;28;61764;-75
2023/07/14 10:32:06;;;;;;;;;2.00;2.00;;;;;-146.67;27.51;73435.94;5054363;28;62056;-74
2023/07/14 10:35:03;;;;;;;;;3.67;1.33;;;;;-146.67;27.33;73404.00;5073103;28;62147;-78
2023/07/14 10:37:46;;;;;;;;;2.67;2.33;;;;;-146.67;27.37;73394.03;5088742;27;62051;-76
2023/07/14 10:40:17;;;;;;;;;8.25;6.75;;;;;-146.67;27.32;73352.13;5086598;27;61944;-76
2023/07/14 10:43:03;;;;;;;;;79.25;72.00;;;;;-146.67;27.30;73312.19;5103901;27;61755;-76
2023/07/14 10:45:32;;;;;;;;;2.75;2.00;;;;;-146.67;26.59;73262.31;5102515;27;62002;-77
2023/07/14 10:48:11;;;;;;;;;3.00;2.00;;;;;-146.67;26.86;73230.38;5103302;27;61865;-78
2023/07/14 10:50:42;;;;;;;;;26.50;22.75;;;;;-146.67;26.81;73186.47;5100905;27;64068;-76
2023/07/14 10:53:12;;;;;;;;;3.00;3.00;;;;;-146.67;26.62;73170.50;5096449;27;62132;-81
2023/07/14 10:55:41;;;;;;;;;19.00;17.75;;;;;-146.67;26.63;73140.56;5084367;27;61871;-77
2023/07/14 10:58:33;;;;;;;;;5.00;3.67;;;;;-146.67;27.09;73088.66;5092056;27;61761;-77
2023/07/14 11:01:04;;;;;;;;;4.33;3.00;;;;;-146.67;26.13;73044.75;5093322;27;62002;-75
2023/07/14 11:03:40;;;;;;;;;3.67;3.67;;;;;-146.67;26.10;72994.88;5090403;27;62173;-76
2023/07/14 11:06:22;;;;;;;;;3.67;3.67;;;;;-146.67;25.22;72964.94;5088974;27;62093;-78
2023/07/14 11:08:53;;;;;;;;;1.67;1.67;;;;;-146.67;25.20;72933.00;5095015;27;61719;-77
2023/07/14 11:11:22;;;;;;;;;2.00;2.00;;;;;-146.67;25.35;72911.06;5088756;27;62852;-77
2023/07/14 11:14:01;;;;;;;;;5.00;2.67;;;;;-146.67;24.89;72881.13;5085834;27;61853;-76
2023/07/14 11:16:32;;;;;;;;;2.33;2.33;;;;;-146.67;24.68;72861.16;5081476;28;61809;-76
2023/07/14 11:19:08;;;;;;;;;3.00;3.00;;;;;-146.67;24.82;72853.19;5080498;28;62057;-77
2023/07/14 11:21:51;;;;;;;;;3.00;3.00;;;;;-146.67;24.84;72875.13;5080635;28;65043;-77